Terminal Aerodrome Forecast
Issued by NWS

Home | Current Version | Previous Version | Text Only | Print | Product List | Glossary On
Versions: 1 2 3 4 5 6 7 8 9 10 11 12 13
000
FTUS45 KTFX 042340
TAFHVR
TAF
KHVR 042340Z 0500/0524 05008KT P6SM SCT008 BKN015
     FM050600 04008KT 5SM -RA BKN006 BKN012
      TEMPO 0507/0511 3SM -RA BR
     FM051900 12008KT P6SM -RA BKN015 BKN030=

USA.gov is the U.S. government's official web portal to all federal, state and local government web resources and services.